Terminal Aerodrome Forecast
Issued by NWS

Home | Current Version | Previous Version | Text Only | Print | Product List | Glossary On
Versions: 1 2 3 4 5 6 7 8 9 10 11 12
000
FTUS41 KPBZ 210533
TAFBVI
TAF
KBVI 210533Z 2106/2206 23006KT P6SM BKN025
     FM210700 23005KT 5SM BR OVC015
     FM211000 22005KT 3SM -DZ OVC008
     FM211500 21005KT P6SM VCSH OVC010
     FM220300 21004KT 4SM -DZ BR OVC006
      AMD NOT SKED=

USA.gov is the U.S. government's official web portal to all federal, state and local government web resources and services.